Time;durP1;ratioP1;P1;durP2;ratioP2;P2;SDS_P1;SDS_P2;PMS_P1;PMS_P2;Temp;Humidity;BMP_temperature;BMP_pressure;BME280_temperature;BME280_humidity;BME280_pressure;Samples;Min_cycle;Max_cycle;Signal;HPM_P1;HPM_P2
2023/01/11 00:00:29;;;;;;;4.90;2.28;;;;;;;;;;10424461;28;20041;-77
2023/01/11 00:05:30;;;;;;;4.63;2.88;;;;;;;;;;10428938;28;20041;-80
2023/01/11 00:10:33;;;;;;;5.80;3.13;;;;;;;;;;10450597;28;20032;-84
2023/01/11 00:15:35;;;;;;;4.70;2.58;;;;;;;;;;10446588;28;20025;-75
2023/01/11 00:20:39;;;;;;;7.13;3.30;;;;;;;;;;10415630;28;20094;-80
2023/01/11 00:25:39;;;;;;;6.80;2.97;;;;;;;;;;10448629;28;20094;-75
2023/01/11 00:30:39;;;;;;;8.67;4.80;;;;;;;;;;10455868;28;20028;-73
2023/01/11 00:35:40;;;;;;;10.27;5.30;;;;;;;;;;10478170;28;20016;-74
2023/01/11 00:40:40;;;;;;;15.68;6.32;;;;;;;;;;10469517;28;20032;-80
2023/01/11 00:51:00;;;;;;;12.73;5.88;;;;;;;;;;10446198;28;20554;-80
2023/01/11 00:56:01;;;;;;;11.98;6.18;;;;;;;;;;10444843;28;20090;-78
2023/01/11 01:01:05;;;;;;;20.48;7.57;;;;;;;;;;10442288;28;20067;-76
2023/01/11 01:06:05;;;;;;;13.13;7.15;;;;;;;;;;10403929;28;20431;-76
2023/01/11 01:11:05;;;;;;;10.43;6.45;;;;;;;;;;10388972;28;20026;-75
2023/01/11 01:16:06;;;;;;;10.90;5.40;;;;;;;;;;10402663;28;20017;-82
2023/01/11 01:21:06;;;;;;;8.85;4.75;;;;;;;;;;10394381;28;20032;-80
2023/01/11 01:26:06;;;;;;;9.02;5.40;;;;;;;;;;10402172;28;20037;-77
2023/01/11 01:31:07;;;;;;;9.20;4.77;;;;;;;;;;10384667;28;20064;-76
2023/01/11 01:36:08;;;;;;;8.57;4.43;;;;;;;;;;10385209;28;20026;-75
2023/01/11 01:41:09;;;;;;;7.85;4.88;;;;;;;;;;10384806;28;20028;-78
2023/01/11 01:46:09;;;;;;;9.45;4.43;;;;;;;;;;10370630;28;20033;-79
2023/01/11 01:51:12;;;;;;;7.50;4.60;;;;;;;;;;10386700;28;20487;-77
2023/01/11 01:56:19;;;;;;;9.13;4.63;;;;;;;;;;10401179;28;20031;-79
2023/01/11 02:06:38;;;;;;;6.80;4.57;;;;;;;;;;10428469;28;20163;-74
2023/01/11 02:11:42;;;;;;;10.05;5.18;;;;;;;;;;10428291;28;20021;-73
2023/01/11 02:16:45;;;;;;;7.07;4.85;;;;;;;;;;10418014;28;20025;-81
2023/01/11 02:22:14;;;;;;;11.65;5.30;;;;;;;;;;10427332;28;20028;-80
2023/01/11 02:27:30;;;;;;;14.43;4.80;;;;;;;;;;10416895;28;20025;-72
2023/01/11 02:32:36;;;;;;;10.65;4.15;;;;;;;;;;10458802;28;20024;-73
2023/01/11 02:37:43;;;;;;;7.72;4.22;;;;;;;;;;10464350;28;20040;-73
2023/01/11 02:48:38;;;;;;;7.75;4.25;;;;;;;;;;10425122;28;20020;-74
2023/01/11 02:53:59;;;;;;;6.80;4.50;;;;;;;;;;10440886;28;20084;-79
2023/01/11 02:59:00;;;;;;;7.78;4.30;;;;;;;;;;10424695;28;20051;-78
2023/01/11 03:04:00;;;;;;;8.30;4.32;;;;;;;;;;10382408;28;1220082;-80
2023/01/11 03:09:30;;;;;;;8.60;4.50;;;;;;;;;;10423991;28;20029;-80
2023/01/11 03:14:30;;;;;;;9.45;4.90;;;;;;;;;;10438911;28;20029;-80
2023/01/11 03:19:36;;;;;;;9.38;4.75;;;;;;;;;;10436750;28;20077;-80
2023/01/11 03:24:44;;;;;;;7.53;4.35;;;;;;;;;;10432232;28;20025;-81
2023/01/11 03:29:48;;;;;;;;;;;;;;;;;;10435414;28;20469;-78
2023/01/11 03:35:09;;;;;;;8.32;4.45;;;;;;;;;;10448341;28;19908;-75
2023/01/11 03:40:13;;;;;;;7.82;5.40;;;;;;;;;;10393149;28;20489;-80
2023/01/11 03:45:13;;;;;;;10.25;5.13;;;;;;;;;;10425174;28;20072;-78
2023/01/11 03:50:14;;;;;;;8.60;5.70;;;;;;;;;;10431225;28;20028;-81
2023/01/11 03:55:15;;;;;;;7.28;4.88;;;;;;;;;;10430376;28;20071;-80
2023/01/11 04:00:19;;;;;;;8.07;5.53;;;;;;;;;;10431500;28;20067;-80
2023/01/11 04:05:20;;;;;;;9.48;5.38;;;;;;;;;;10443543;28;20132;-82
2023/01/11 04:10:20;;;;;;;9.40;5.63;;;;;;;;;;10429292;28;20120;-75
2023/01/11 04:15:21;;;;;;;10.30;6.27;;;;;;;;;;10429918;28;20017;-77
2023/01/11 04:20:22;;;;;;;10.70;5.88;;;;;;;;;;10428153;28;20032;-71
2023/01/11 04:25:22;;;;;;;15.93;7.15;;;;;;;;;;10437248;28;20017;-72
2023/01/11 04:30:23;;;;;;;14.70;7.55;;;;;;;;;;10453266;28;20577;-75
2023/01/11 04:35:23;;;;;;;18.97;9.00;;;;;;;;;;10456735;28;20309;-72
2023/01/11 04:40:24;;;;;;;16.55;9.07;;;;;;;;;;10444028;28;20124;-79
2023/01/11 04:45:24;;;;;;;16.45;7.93;;;;;;;;;;10402926;28;20037;-82
2023/01/11 04:50:25;;;;;;;15.73;8.52;;;;;;;;;;10423137;28;20040;-76
2023/01/11 04:55:25;;;;;;;18.10;9.52;;;;;;;;;;10422341;28;20106;-78
2023/01/11 05:00:26;;;;;;;16.00;9.17;;;;;;;;;;10434099;28;20309;-72
2023/01/11 05:05:26;;;;;;;16.88;7.75;;;;;;;;;;10425981;28;20057;-76
2023/01/11 05:10:26;;;;;;;11.95;7.43;;;;;;;;;;10440794;28;20047;-73
2023/01/11 05:15:26;;;;;;;14.32;7.28;;;;;;;;;;10440010;28;20025;-75
2023/01/11 05:20:27;;;;;;;9.63;6.20;;;;;;;;;;10429905;28;20028;-79
2023/01/11 05:25:27;;;;;;;14.05;6.65;;;;;;;;;;10435077;28;20040;-76
2023/01/11 05:30:27;;;;;;;15.75;6.63;;;;;;;;;;10440870;28;20039;-76
2023/01/11 05:35:27;;;;;;;12.27;6.72;;;;;;;;;;10449915;28;20024;-80
2023/01/11 05:40:28;;;;;;;9.73;5.40;;;;;;;;;;10448557;28;20539;-76
2023/01/11 05:45:28;;;;;;;9.75;5.18;;;;;;;;;;10437990;28;20502;-77
2023/01/11 05:50:28;;;;;;;9.07;5.68;;;;;;;;;;10414382;28;20032;-76
2023/01/11 05:55:29;;;;;;;5.80;3.57;;;;;;;;;;10422829;28;20020;-77
2023/01/11 06:00:29;;;;;;;6.88;3.20;;;;;;;;;;10415907;28;20075;-81
2023/01/11 06:05:29;;;;;;;6.93;4.10;;;;;;;;;;10410985;28;20045;-81
2023/01/11 06:10:29;;;;;;;5.97;4.07;;;;;;;;;;10423716;28;20529;-80
2023/01/11 06:15:30;;;;;;;5.38;3.53;;;;;;;;;;10423840;28;20020;-79
2023/01/11 06:20:30;;;;;;;5.93;3.95;;;;;;;;;;10409157;28;20033;-81
2023/01/11 06:25:31;;;;;;;4.80;3.33;;;;;;;;;;10439632;28;20016;-79
2023/01/11 06:30:32;;;;;;;5.32;3.70;;;;;;;;;;10444441;28;20025;-74
2023/01/11 06:35:36;;;;;;;5.55;3.78;;;;;;;;;;10448009;28;20025;-77
2023/01/11 06:40:37;;;;;;;7.03;4.43;;;;;;;;;;10434560;28;20112;-80
2023/01/11 06:45:38;;;;;;;7.22;4.25;;;;;;;;;;10431869;28;20124;-78
2023/01/11 06:50:39;;;;;;;5.67;3.73;;;;;;;;;;10432832;28;20035;-80
2023/01/11 06:55:39;;;;;;;6.35;4.00;;;;;;;;;;10432538;28;20023;-77
2023/01/11 07:00:39;;;;;;;12.05;6.78;;;;;;;;;;10411140;28;20037;-75
2023/01/11 07:05:41;;;;;;;11.02;7.10;;;;;;;;;;10429189;28;20049;-78
2023/01/11 07:10:42;;;;;;;8.25;5.18;;;;;;;;;;10444445;28;20402;-80
2023/01/11 07:15:43;;;;;;;5.72;3.53;;;;;;;;;;10433014;28;20025;-74
2023/01/11 07:20:44;;;;;;;14.95;6.78;;;;;;;;;;10437876;28;20037;-75
2023/01/11 07:25:44;;;;;;;5.30;3.45;;;;;;;;;;10440353;28;20025;-76
2023/01/11 07:30:44;;;;;;;6.55;4.72;;;;;;;;;;10427364;28;20021;-75
2023/01/11 07:35:46;;;;;;;12.15;6.18;;;;;;;;;;10448355;23;20057;-80
2023/01/11 07:40:47;;;;;;;5.57;3.17;;;;;;;;;;10420912;28;20036;-74
2023/01/11 07:45:48;;;;;;;5.70;3.13;;;;;;;;;;10429843;28;20043;-80
2023/01/11 07:50:48;;;;;;;6.35;2.92;;;;;;;;;;10425946;28;20036;-81
2023/01/11 07:55:48;;;;;;;5.77;3.40;;;;;;;;;;10444238;28;20475;-75
2023/01/11 08:00:49;;;;;;;4.57;3.30;;;;;;;;;;10445601;28;20040;-80
2023/01/11 08:05:50;;;;;;;8.02;5.15;;;;;;;;;;10415474;28;20420;-79
2023/01/11 08:16:10;;;;;;;6.13;4.18;;;;;;;;;;10441534;28;20029;-81
2023/01/11 08:21:10;;;;;;;6.75;4.03;;;;;;;;;;10427598;28;20029;-83
2023/01/11 08:26:15;;;;;;;6.40;4.00;;;;;;;;;;10414760;28;20039;-80
2023/01/11 08:31:16;;;;;;;12.90;4.82;;;;;;;;;;10391851;28;20148;-80
2023/01/11 08:36:17;;;;;;;4.23;3.03;;;;;;;;;;10415060;28;20068;-73
2023/01/11 08:41:17;;;;;;;4.20;3.05;;;;;;;;;;10422763;28;20021;-68
2023/01/11 08:46:18;;;;;;;3.40;2.47;;;;;;;;;;10408106;28;20108;-75
2023/01/11 08:51:19;;;;;;;7.43;3.88;;;;;;;;;;10391828;28;20045;-79
2023/01/11 08:56:19;;;;;;;5.63;3.30;;;;;;;;;;10394532;28;20490;-74
2023/01/11 09:01:19;;;;;;;3.95;2.60;;;;;;;;;;10403575;28;20075;-79
2023/01/11 09:06:21;;;;;;;18.30;4.97;;;;;;;;;;10399649;28;20029;-78
2023/01/11 09:16:40;;;;;;;11.50;2.95;;;;;;;;;;10410651;28;20480;-80
2023/01/11 09:21:40;;;;;;;6.00;3.47;;;;;;;;;;10393177;28;20029;-77
2023/01/11 09:26:42;;;;;;;16.80;4.57;;;;;;;;;;10401572;28;20059;-80
2023/01/11 09:31:43;;;;;;;22.65;3.20;;;;;;;;;;10390359;28;20037;-81
2023/01/11 09:36:46;;;;;;;8.93;2.93;;;;;;;;;;10397028;28;20057;-79
2023/01/11 09:41:59;;;;;;;20.77;3.35;;;;;;;;;;10401421;28;20513;-78
2023/01/11 09:47:11;;;;;;;4.80;3.05;;;;;;;;;;10383957;28;20594;-79
2023/01/11 09:52:35;;;;;;;6.13;2.75;;;;;;;;;;10412752;28;20025;-75
2023/01/11 09:57:57;;;;;;;11.27;3.58;;;;;;;;;;10413202;28;20332;-77
2023/01/11 10:03:02;;;;;;;7.63;2.42;;;;;;;;;;10388063;28;20025;-79
2023/01/11 10:08:26;;;;;;;5.43;2.30;;;;;;;;;;10416615;28;20537;-80
2023/01/11 10:13:44;;;;;;;5.32;2.83;;;;;;;;;;10397707;28;20028;-82
2023/01/11 10:19:05;;;;;;;4.68;2.67;;;;;;;;;;10390587;28;20047;-78
2023/01/11 10:24:13;;;;;;;3.75;2.33;;;;;;;;;;10405952;28;20610;-81
2023/01/11 10:45:11;;;;;;;6.18;2.47;;;;;;;;;;10405117;28;20495;-75
2023/01/11 10:50:23;;;;;;;15.38;3.17;;;;;;;;;;10432636;28;20033;-74
2023/01/11 10:55:40;;;;;;;8.70;2.95;;;;;;;;;;10425648;28;20037;-75
2023/01/11 11:00:40;;;;;;;6.15;2.33;;;;;;;;;;10401413;28;20033;-81
2023/01/11 11:05:59;;;;;;;3.67;1.70;;;;;;;;;;10394944;28;20480;-75
2023/01/11 11:11:05;;;;;;;7.20;2.15;;;;;;;;;;10410323;28;20040;-79
2023/01/11 11:16:18;;;;;;;5.40;1.90;;;;;;;;;;10394377;28;20024;-80
2023/01/11 11:21:21;;;;;;;8.80;2.60;;;;;;;;;;10384925;28;20507;-79
2023/01/11 11:26:23;;;;;;;6.20;2.30;;;;;;;;;;10385652;28;20067;-81
2023/01/11 11:31:24;;;;;;;4.60;2.08;;;;;;;;;;10395561;28;20116;-79
2023/01/11 11:36:25;;;;;;;3.30;2.08;;;;;;;;;;10408385;28;20045;-81
2023/01/11 11:41:25;;;;;;;5.60;2.63;;;;;;;;;;10379876;28;20038;-79
2023/01/11 11:46:26;;;;;;;7.80;1.90;;;;;;;;;;10397780;28;20033;-77
2023/01/11 11:51:26;;;;;;;12.48;3.55;;;;;;;;;;10376162;28;20131;-80
2023/01/11 11:56:34;;;;;;;3.92;2.08;;;;;;;;;;10359038;28;20021;-81
2023/01/11 12:01:36;;;;;;;6.80;2.93;;;;;;;;;;10380766;28;20647;-75
2023/01/11 12:06:36;;;;;;;10.18;4.70;;;;;;;;;;10384574;28;20045;-76
2023/01/11 12:11:40;;;;;;;16.02;4.40;;;;;;;;;;10408707;28;20042;-78
2023/01/11 12:16:42;;;;;;;5.82;2.80;;;;;;;;;;10380803;28;20048;-76
2023/01/11 12:21:42;;;;;;;12.43;2.95;;;;;;;;;;10396219;28;20028;-76
2023/01/11 12:26:52;;;;;;;4.22;3.08;;;;;;;;;;10385798;28;20040;-76
2023/01/11 12:32:04;;;;;;;7.60;3.92;;;;;;;;;;10429838;23;20047;-77
2023/01/11 12:37:05;;;;;;;8.77;3.60;;;;;;;;;;10513050;28;20578;-75
2023/01/11 12:42:13;;;;;;;5.55;2.38;;;;;;;;;;10528489;28;20161;-74
2023/01/11 12:47:13;;;;;;;16.17;4.22;;;;;;;;;;10497934;28;20421;-74
2023/01/11 12:52:17;;;;;;;10.57;4.07;;;;;;;;;;10508712;28;20032;-74
2023/01/11 12:57:23;;;;;;;12.93;8.23;;;;;;;;;;10509615;28;20058;-75
2023/01/11 13:02:31;;;;;;;5.93;3.20;;;;;;;;;;10517773;28;20020;-73
2023/01/11 13:07:31;;;;;;;;;;;;;;;;;;10526120;28;20065;-76
2023/01/11 13:12:44;;;;;;;5.75;3.40;;;;;;;;;;10502037;28;19974;-75
2023/01/11 13:17:54;;;;;;;4.82;3.15;;;;;;;;;;10516434;28;20028;-77
2023/01/11 13:22:58;;;;;;;8.18;4.18;;;;;;;;;;10506718;28;20020;-76
2023/01/11 13:28:02;;;;;;;10.25;4.53;;;;;;;;;;10509518;28;20016;-76
2023/01/11 13:33:09;;;;;;;8.60;4.15;;;;;;;;;;10497682;28;20101;-75
2023/01/11 13:38:14;;;;;;;9.68;4.28;;;;;;;;;;10457851;28;20032;-79
2023/01/11 13:43:18;;;;;;;7.03;4.05;;;;;;;;;;10468526;28;20063;-75
2023/01/11 13:48:32;;;;;;;7.35;4.40;;;;;;;;;;10439663;28;20023;-80
2023/01/11 13:53:32;;;;;;;6.28;3.47;;;;;;;;;;10464541;28;20020;-76
2023/01/11 13:58:41;;;;;;;5.95;3.38;;;;;;;;;;10464121;28;20097;-74
2023/01/11 14:04:00;;;;;;;13.07;4.63;;;;;;;;;;10465993;28;20143;-77
2023/01/11 14:09:03;;;;;;;7.35;4.35;;;;;;;;;;10460847;28;20024;-75
2023/01/11 14:14:20;;;;;;;9.52;4.68;;;;;;;;;;10463956;28;20016;-81
2023/01/11 14:19:39;;;;;;;8.50;4.47;;;;;;;;;;10481196;28;20051;-79
2023/01/11 14:24:45;;;;;;;7.80;3.80;;;;;;;;;;10455959;28;20020;-75
2023/01/11 14:29:50;;;;;;;8.52;4.35;;;;;;;;;;10456566;28;20039;-75
2023/01/11 14:34:57;;;;;;;11.55;4.25;;;;;;;;;;10486927;28;20049;-74
2023/01/11 14:39:58;;;;;;;7.43;4.07;;;;;;;;;;10498177;28;20072;-78
2023/01/11 14:45:01;;;;;;;7.45;4.18;;;;;;;;;;10537289;28;20413;-81
2023/01/11 14:50:20;;;;;;;9.60;4.43;;;;;;;;;;10540166;28;20039;-75
2023/01/11 14:55:28;;;;;;;9.43;5.18;;;;;;;;;;10519113;28;20020;-76
2023/01/11 15:00:28;;;;;;;;;;;;;;;;;;10556617;28;20024;-75
2023/01/11 15:05:32;;;;;;;15.43;5.55;;;;;;;;;;10501796;28;20022;-75
2023/01/11 15:10:36;;;;;;;10.40;5.32;;;;;;;;;;10479134;28;20371;-74
2023/01/11 15:20:57;;;;;;;24.25;6.75;;;;;;;;;;10573926;28;20084;-80
2023/01/11 15:25:59;;;;;;;15.98;6.25;;;;;;;;;;10502577;28;20051;-79
2023/01/11 15:31:02;;;;;;;10.63;5.43;;;;;;;;;;10525391;28;20081;-80
2023/01/11 15:36:02;;;;;;;10.68;7.05;;;;;;;;;;10488222;28;20147;-74
2023/01/11 15:46:52;;;;;;;12.25;5.85;;;;;;;;;;10518458;28;20028;-75
2023/01/11 15:52:11;;;;;;;12.63;6.32;;;;;;;;;;10534660;28;20056;-77
2023/01/11 15:57:44;;;;;;;12.30;5.53;;;;;;;;;;10531166;28;20024;-77
2023/01/11 16:02:56;;;;;;;13.30;7.47;;;;;;;;;;10461180;28;20491;-78
2023/01/11 16:08:20;;;;;;;18.92;6.63;;;;;;;;;;10514948;28;20035;-76
2023/01/11 16:13:43;;;;;;;19.33;9.15;;;;;;;;;;10472762;28;20025;-75
2023/01/11 16:19:16;;;;;;;21.52;10.50;;;;;;;;;;10494057;28;20044;-78
2023/01/11 16:24:19;;;;;;;16.30;8.45;;;;;;;;;;10486919;22;20202;-77
2023/01/11 16:29:21;;;;;;;17.45;8.73;;;;;;;;;;10463882;28;20081;-79
2023/01/11 16:34:22;;;;;;;20.25;9.73;;;;;;;;;;10474137;28;20055;-76
2023/01/11 16:39:56;;;;;;;23.17;10.73;;;;;;;;;;10482278;28;20111;-77
2023/01/11 16:45:06;;;;;;;18.67;10.57;;;;;;;;;;10467672;28;20844;-77
2023/01/11 16:50:24;;;;;;;23.75;10.20;;;;;;;;;;10446803;28;20034;-74
2023/01/11 16:55:41;;;;;;;23.55;11.00;;;;;;;;;;10457475;28;20029;-79
2023/01/11 17:00:42;;;;;;;23.23;11.52;;;;;;;;;;10487588;28;20048;-73
2023/01/11 17:11:27;;;;;;;35.60;15.18;;;;;;;;;;10492197;28;20028;-70
2023/01/11 17:16:30;;;;;;;25.67;13.20;;;;;;;;;;10501367;28;20031;-71
2023/01/11 17:21:30;;;;;;;31.10;12.60;;;;;;;;;;10457282;28;20032;-80
2023/01/11 17:26:42;;;;;;;21.97;11.33;;;;;;;;;;10473307;28;20052;-79
2023/01/11 17:31:43;;;;;;;29.20;14.80;;;;;;;;;;10462691;28;20036;-74
2023/01/11 17:36:45;;;;;;;22.87;12.20;;;;;;;;;;10464177;28;20048;-76
2023/01/11 17:47:09;;;;;;;28.55;13.57;;;;;;;;;;10481893;28;20028;-77
2023/01/11 17:52:15;;;;;;;23.08;12.27;;;;;;;;;;10474089;28;20036;-81
2023/01/11 17:57:15;;;;;;;26.08;13.07;;;;;;;;;;10466109;28;20410;-78
2023/01/11 18:02:16;;;;;;;30.60;13.17;;;;;;;;;;10456567;28;20037;-78
2023/01/11 18:07:17;;;;;;;28.87;13.57;;;;;;;;;;10465960;28;20279;-80
2023/01/11 18:12:26;;;;;;;28.20;13.32;;;;;;;;;;10463024;28;20033;-73
2023/01/11 18:17:31;;;;;;;26.20;12.93;;;;;;;;;;10455280;28;20071;-78
2023/01/11 18:22:35;;;;;;;29.15;14.00;;;;;;;;;;10459498;28;20032;-77
2023/01/11 18:27:37;;;;;;;24.10;13.60;;;;;;;;;;10426528;28;20087;-75
2023/01/11 18:32:41;;;;;;;19.83;11.38;;;;;;;;;;10440189;28;20031;-75
2023/01/11 18:37:42;;;;;;;20.60;11.30;;;;;;;;;;10437184;28;20040;-82
2023/01/11 18:42:44;;;;;;;22.02;10.93;;;;;;;;;;10432477;28;20406;-81
2023/01/11 18:47:44;;;;;;;19.75;11.68;;;;;;;;;;10442227;28;20021;-80
2023/01/11 18:52:45;;;;;;;22.65;11.38;;;;;;;;;;10444177;28;20372;-72
2023/01/11 18:57:46;;;;;;;21.43;11.93;;;;;;;;;;10441297;28;20071;-80
2023/01/11 19:02:46;;;;;;;29.42;12.18;;;;;;;;;;10452978;28;20029;-77
2023/01/11 19:07:47;;;;;;;31.20;14.00;;;;;;;;;;10471150;28;20485;-70
2023/01/11 19:12:49;;;;;;;29.27;14.43;;;;;;;;;;10460286;28;20017;-73
2023/01/11 19:17:49;;;;;;;31.30;13.70;;;;;;;;;;10465864;28;20033;-73
2023/01/11 19:22:50;;;;;;;31.67;14.67;;;;;;;;;;10451600;28;20097;-76
2023/01/11 19:27:51;;;;;;;27.48;13.38;;;;;;;;;;10428372;28;20052;-78
2023/01/11 19:32:55;;;;;;;20.10;11.40;;;;;;;;;;10451733;28;20047;-78
2023/01/11 19:37:55;;;;;;;29.05;12.10;;;;;;;;;;10447148;28;20406;-74
2023/01/11 19:42:57;;;;;;;24.50;10.77;;;;;;;;;;10444645;28;20148;-79
2023/01/11 19:47:57;;;;;;;21.17;10.57;;;;;;;;;;10448009;28;20465;-74
2023/01/11 19:52:57;;;;;;;21.20;9.88;;;;;;;;;;10443103;28;20427;-73
2023/01/11 19:57:57;;;;;;;24.88;11.30;;;;;;;;;;10445739;28;20032;-73
2023/01/11 20:03:04;;;;;;;22.70;10.03;;;;;;;;;;10444919;28;20027;-74
2023/01/11 20:08:04;;;;;;;17.15;8.45;;;;;;;;;;10430695;28;20126;-78
2023/01/11 20:13:05;;;;;;;17.90;9.20;;;;;;;;;;10444765;28;20105;-72
2023/01/11 20:18:05;;;;;;;17.25;7.15;;;;;;;;;;10440113;28;20053;-76
2023/01/11 20:23:05;;;;;;;16.42;7.22;;;;;;;;;;10442462;28;20033;-73
2023/01/11 20:28:05;;;;;;;14.40;6.53;;;;;;;;;;10446878;28;20486;-75
2023/01/11 20:33:08;;;;;;;14.02;7.40;;;;;;;;;;10440038;28;20027;-76
2023/01/11 20:38:09;;;;;;;17.38;7.13;;;;;;;;;;10440378;28;20029;-74
2023/01/11 20:43:12;;;;;;;15.15;6.68;;;;;;;;;;10442134;28;20507;-73
2023/01/11 20:48:12;;;;;;;16.60;8.10;;;;;;;;;;10438889;28;20025;-74
2023/01/11 20:53:13;;;;;;;12.85;7.35;;;;;;;;;;10440615;28;20036;-74
2023/01/11 20:58:14;;;;;;;15.30;7.03;;;;;;;;;;10443117;28;20059;-73
2023/01/11 21:03:14;;;;;;;10.82;6.55;;;;;;;;;;10438996;28;20021;-73
2023/01/11 21:08:14;;;;;;;16.57;7.87;;;;;;;;;;10437291;28;20021;-74
2023/01/11 21:13:14;;;;;;;15.88;5.88;;;;;;;;;;10471320;23;20063;-72
2023/01/11 21:18:15;;;;;;;18.35;7.60;;;;;;;;;;10464275;28;20490;-77
2023/01/11 21:23:15;;;;;;;17.20;7.93;;;;;;;;;;10457751;28;20072;-76
2023/01/11 21:28:15;;;;;;;15.05;7.97;;;;;;;;;;10462429;28;20020;-77
2023/01/11 21:33:16;;;;;;;20.92;8.75;;;;;;;;;;10459592;28;20535;-73
2023/01/11 21:38:16;;;;;;;13.30;7.43;;;;;;;;;;10468929;28;20560;-73
2023/01/11 21:43:16;;;;;;;14.63;7.35;;;;;;;;;;10464673;28;20314;-79
2023/01/11 21:48:17;;;;;;;17.05;7.70;;;;;;;;;;10441343;28;20062;-78
2023/01/11 21:53:17;;;;;;;13.33;7.83;;;;;;;;;;10449705;28;20112;-77
2023/01/11 21:58:18;;;;;;;15.93;7.28;;;;;;;;;;10444604;28;20271;-77
2023/01/11 22:03:18;;;;;;;15.05;6.80;;;;;;;;;;10419797;28;20094;-76
2023/01/11 22:08:18;;;;;;;16.45;8.07;;;;;;;;;;10464399;28;20059;-81
2023/01/11 22:13:19;;;;;;;15.32;7.65;;;;;;;;;;10449673;28;20098;-77
2023/01/11 22:18:21;;;;;;;16.92;8.32;;;;;;;;;;10453881;28;20473;-78
2023/01/11 22:23:22;;;;;;;16.27;8.70;;;;;;;;;;10451976;28;20077;-71
2023/01/11 22:28:22;;;;;;;17.55;8.32;;;;;;;;;;10442427;28;20058;-72
2023/01/11 22:33:24;;;;;;;18.50;8.82;;;;;;;;;;10463063;28;20405;-74
2023/01/11 22:38:24;;;;;;;19.02;8.93;;;;;;;;;;10481291;28;20013;-79
2023/01/11 22:43:24;;;;;;;16.48;7.60;;;;;;;;;;10463324;28;20032;-73
2023/01/11 22:48:25;;;;;;;19.38;9.18;;;;;;;;;;10464711;28;20025;-76
2023/01/11 22:53:25;;;;;;;16.20;7.97;;;;;;;;;;10483069;28;20452;-74
2023/01/11 22:58:26;;;;;;;16.20;8.23;;;;;;;;;;10454512;28;20480;-73
2023/01/11 23:03:27;;;;;;;13.63;7.72;;;;;;;;;;10470174;28;20272;-79
2023/01/11 23:08:28;;;;;;;16.30;7.22;;;;;;;;;;10482891;28;20029;-75
2023/01/11 23:18:47;;;;;;;19.77;9.25;;;;;;;;;;10481365;28;20768;-76
2023/01/11 23:23:47;;;;;;;21.23;7.85;;;;;;;;;;10463261;28;20036;-73
2023/01/11 23:28:48;;;;;;;13.80;6.50;;;;;;;;;;10485780;28;20107;-76
2023/01/11 23:33:50;;;;;;;18.02;8.05;;;;;;;;;;10471301;28;20028;-75
2023/01/11 23:38:50;;;;;;;11.88;6.78;;;;;;;;;;10470624;28;20040;-71
2023/01/11 23:43:50;;;;;;;14.30;7.25;;;;;;;;;;10489696;28;20032;-77
2023/01/11 23:48:51;;;;;;;14.80;7.15;;;;;;;;;;10470197;28;20082;-74
2023/01/11 23:53:51;;;;;;;17.02;6.82;;;;;;;;;;10470002;28;20552;-77
2023/01/11 23:58:51;;;;;;;17.20;7.72;;;;;;;;;;10470324;28;20430;-76
